sensor_id;sensor_type;location;lat;lon;timestamp;P1;durP1;ratioP1;P2;durP2;ratioP2
40669;SDS011;26355;45.528;9.234;2023-08-31T00:02:00;10.02;;;2.00;;
40669;SDS011;26355;45.528;9.234;2023-08-31T00:04:26;4.72;;;1.80;;
40669;SDS011;26355;45.528;9.234;2023-08-31T00:06:51;7.32;;;1.80;;
40669;SDS011;26355;45.528;9.234;2023-08-31T00:09:17;6.38;;;2.20;;
40669;SDS011;26355;45.528;9.234;2023-08-31T00:11:44;7.03;;;2.10;;
40669;SDS011;26355;45.528;9.234;2023-08-31T00:14:09;6.30;;;2.00;;
40669;SDS011;26355;45.528;9.234;2023-08-31T00:16:35;10.40;;;2.17;;
40669;SDS011;26355;45.528;9.234;2023-08-31T00:19:02;9.73;;;1.90;;
40669;SDS011;26355;45.528;9.234;2023-08-31T00:21:27;9.65;;;2.30;;
40669;SDS011;26355;45.528;9.234;2023-08-31T00:23:55;7.50;;;2.10;;
40669;SDS011;26355;45.528;9.234;2023-08-31T00:26:20;8.18;;;2.08;;
40669;SDS011;26355;45.528;9.234;2023-08-31T00:28:46;10.15;;;2.33;;
40669;SDS011;26355;45.528;9.234;2023-08-31T00:31:11;10.30;;;2.65;;
40669;SDS011;26355;45.528;9.234;2023-08-31T00:33:37;7.88;;;1.95;;
40669;SDS011;26355;45.528;9.234;2023-08-31T00:36:03;7.28;;;1.90;;
40669;SDS011;26355;45.528;9.234;2023-08-31T00:38:30;8.20;;;2.50;;
40669;SDS011;26355;45.528;9.234;2023-08-31T00:40:56;7.15;;;1.92;;
40669;SDS011;26355;45.528;9.234;2023-08-31T00:43:22;10.15;;;2.20;;
40669;SDS011;26355;45.528;9.234;2023-08-31T00:45:49;8.93;;;2.30;;
40669;SDS011;26355;45.528;9.234;2023-08-31T00:48:16;7.82;;;2.15;;
40669;SDS011;26355;45.528;9.234;2023-08-31T00:50:45;8.80;;;2.40;;
40669;SDS011;26355;45.528;9.234;2023-08-31T00:53:12;7.10;;;1.90;;
40669;SDS011;26355;45.528;9.234;2023-08-31T00:55:39;7.65;;;1.95;;
40669;SDS011;26355;45.528;9.234;2023-08-31T00:58:07;7.57;;;2.30;;
40669;SDS011;26355;45.528;9.234;2023-08-31T01:08:52;7.43;;;1.98;;
40669;SDS011;26355;45.528;9.234;2023-08-31T01:14:32;5.67;;;2.00;;
40669;SDS011;26355;45.528;9.234;2023-08-31T01:17:02;7.95;;;2.10;;
40669;SDS011;26355;45.528;9.234;2023-08-31T01:22:18;7.70;;;2.13;;
40669;SDS011;26355;45.528;9.234;2023-08-31T01:24:52;7.03;;;2.15;;
40669;SDS011;26355;45.528;9.234;2023-08-31T01:27:18;10.93;;;2.17;;
40669;SDS011;26355;45.528;9.234;2023-08-31T01:29:45;7.73;;;2.57;;
40669;SDS011;26355;45.528;9.234;2023-08-31T01:32:10;7.18;;;2.25;;
40669;SDS011;26355;45.528;9.234;2023-08-31T01:34:36;9.80;;;2.10;;
40669;SDS011;26355;45.528;9.234;2023-08-31T01:37:03;6.82;;;2.38;;
40669;SDS011;26355;45.528;9.234;2023-08-31T01:39:39;8.20;;;2.67;;
40669;SDS011;26355;45.528;9.234;2023-08-31T01:42:11;9.10;;;2.53;;
40669;SDS011;26355;45.528;9.234;2023-08-31T01:44:38;9.43;;;2.50;;
40669;SDS011;26355;45.528;9.234;2023-08-31T01:47:05;12.20;;;2.65;;
40669;SDS011;26355;45.528;9.234;2023-08-31T01:49:38;9.05;;;2.42;;
40669;SDS011;26355;45.528;9.234;2023-08-31T01:52:04;8.77;;;2.50;;
40669;SDS011;26355;45.528;9.234;2023-08-31T01:54:31;9.98;;;2.33;;
40669;SDS011;26355;45.528;9.234;2023-08-31T01:56:57;9.90;;;2.42;;
40669;SDS011;26355;45.528;9.234;2023-08-31T01:59:23;11.00;;;2.53;;
40669;SDS011;26355;45.528;9.234;2023-08-31T02:01:48;9.35;;;2.53;;
40669;SDS011;26355;45.528;9.234;2023-08-31T02:04:14;9.63;;;2.60;;
40669;SDS011;26355;45.528;9.234;2023-08-31T02:06:39;8.02;;;2.90;;
40669;SDS011;26355;45.528;9.234;2023-08-31T02:09:05;8.20;;;2.60;;
40669;SDS011;26355;45.528;9.234;2023-08-31T02:11:31;13.88;;;2.60;;
40669;SDS011;26355;45.528;9.234;2023-08-31T02:13:57;9.23;;;2.40;;
40669;SDS011;26355;45.528;9.234;2023-08-31T02:16:23;9.60;;;2.50;;
40669;SDS011;26355;45.528;9.234;2023-08-31T02:18:49;9.65;;;2.70;;
40669;SDS011;26355;45.528;9.234;2023-08-31T02:21:14;11.40;;;2.88;;
40669;SDS011;26355;45.528;9.234;2023-08-31T02:23:40;8.50;;;2.70;;
40669;SDS011;26355;45.528;9.234;2023-08-31T02:26:05;6.80;;;2.30;;
40669;SDS011;26355;45.528;9.234;2023-08-31T02:28:31;8.55;;;2.67;;
40669;SDS011;26355;45.528;9.234;2023-08-31T02:30:57;10.63;;;2.95;;
40669;SDS011;26355;45.528;9.234;2023-08-31T02:35:50;9.35;;;2.53;;
40669;SDS011;26355;45.528;9.234;2023-08-31T02:38:15;10.57;;;2.88;;
40669;SDS011;26355;45.528;9.234;2023-08-31T02:40:41;10.63;;;2.85;;
40669;SDS011;26355;45.528;9.234;2023-08-31T02:43:06;8.90;;;2.80;;
40669;SDS011;26355;45.528;9.234;2023-08-31T02:45:32;10.02;;;2.70;;
40669;SDS011;26355;45.528;9.234;2023-08-31T02:47:58;10.02;;;2.72;;
40669;SDS011;26355;45.528;9.234;2023-08-31T02:50:23;10.63;;;2.75;;
40669;SDS011;26355;45.528;9.234;2023-08-31T02:52:49;12.75;;;3.22;;
40669;SDS011;26355;45.528;9.234;2023-08-31T02:55:15;11.60;;;2.90;;
40669;SDS011;26355;45.528;9.234;2023-08-31T02:57:40;9.63;;;2.70;;
40669;SDS011;26355;45.528;9.234;2023-08-31T03:00:06;10.15;;;3.17;;
40669;SDS011;26355;45.528;9.234;2023-08-31T03:02:37;11.75;;;2.95;;
40669;SDS011;26355;45.528;9.234;2023-08-31T03:05:03;12.50;;;2.75;;
40669;SDS011;26355;45.528;9.234;2023-08-31T03:07:29;11.38;;;3.20;;
40669;SDS011;26355;45.528;9.234;2023-08-31T03:09:55;10.52;;;2.88;;
40669;SDS011;26355;45.528;9.234;2023-08-31T03:12:20;13.18;;;3.50;;
40669;SDS011;26355;45.528;9.234;2023-08-31T03:14:46;9.07;;;3.03;;
40669;SDS011;26355;45.528;9.234;2023-08-31T03:17:11;10.38;;;2.83;;
40669;SDS011;26355;45.528;9.234;2023-08-31T03:19:37;12.13;;;3.42;;
40669;SDS011;26355;45.528;9.234;2023-08-31T03:22:03;9.88;;;3.03;;
40669;SDS011;26355;45.528;9.234;2023-08-31T03:24:28;9.65;;;2.80;;
40669;SDS011;26355;45.528;9.234;2023-08-31T03:26:54;11.10;;;3.08;;
40669;SDS011;26355;45.528;9.234;2023-08-31T03:29:19;11.15;;;2.88;;
40669;SDS011;26355;45.528;9.234;2023-08-31T03:31:46;11.95;;;3.30;;
40669;SDS011;26355;45.528;9.234;2023-08-31T03:34:11;12.00;;;2.88;;
40669;SDS011;26355;45.528;9.234;2023-08-31T03:36:37;11.23;;;3.10;;
40669;SDS011;26355;45.528;9.234;2023-08-31T03:39:02;10.57;;;3.03;;
40669;SDS011;26355;45.528;9.234;2023-08-31T03:41:28;10.07;;;3.05;;
40669;SDS011;26355;45.528;9.234;2023-08-31T03:43:54;11.13;;;3.30;;
40669;SDS011;26355;45.528;9.234;2023-08-31T03:46:19;11.07;;;3.38;;
40669;SDS011;26355;45.528;9.234;2023-08-31T03:48:45;13.32;;;3.58;;
40669;SDS011;26355;45.528;9.234;2023-08-31T03:51:10;11.18;;;3.55;;
40669;SDS011;26355;45.528;9.234;2023-08-31T03:53:36;12.15;;;3.55;;
40669;SDS011;26355;45.528;9.234;2023-08-31T03:56:01;10.88;;;3.45;;
40669;SDS011;26355;45.528;9.234;2023-08-31T03:58:29;11.18;;;3.55;;
40669;SDS011;26355;45.528;9.234;2023-08-31T04:00:55;9.75;;;3.00;;
40669;SDS011;26355;45.528;9.234;2023-08-31T04:03:20;11.32;;;3.00;;
40669;SDS011;26355;45.528;9.234;2023-08-31T04:05:46;7.88;;;2.92;;
40669;SDS011;26355;45.528;9.234;2023-08-31T04:08:12;8.95;;;2.67;;
40669;SDS011;26355;45.528;9.234;2023-08-31T04:10:37;11.77;;;3.20;;
40669;SDS011;26355;45.528;9.234;2023-08-31T04:13:03;9.00;;;2.85;;
40669;SDS011;26355;45.528;9.234;2023-08-31T04:15:28;11.75;;;3.10;;
40669;SDS011;26355;45.528;9.234;2023-08-31T04:17:55;10.82;;;3.22;;
40669;SDS011;26355;45.528;9.234;2023-08-31T04:20:21;11.73;;;3.17;;
40669;SDS011;26355;45.528;9.234;2023-08-31T04:22:47;10.52;;;3.20;;
40669;SDS011;26355;45.528;9.234;2023-08-31T04:25:12;10.73;;;2.65;;
40669;SDS011;26355;45.528;9.234;2023-08-31T04:27:38;8.90;;;3.03;;
40669;SDS011;26355;45.528;9.234;2023-08-31T04:30:07;13.93;;;3.15;;
40669;SDS011;26355;45.528;9.234;2023-08-31T04:32:33;14.05;;;2.78;;
40669;SDS011;26355;45.528;9.234;2023-08-31T04:34:58;8.65;;;2.47;;
40669;SDS011;26355;45.528;9.234;2023-08-31T04:37:24;12.73;;;2.83;;
40669;SDS011;26355;45.528;9.234;2023-08-31T04:39:49;13.50;;;3.00;;
40669;SDS011;26355;45.528;9.234;2023-08-31T04:42:15;9.25;;;2.50;;
40669;SDS011;26355;45.528;9.234;2023-08-31T04:44:43;13.93;;;3.08;;
40669;SDS011;26355;45.528;9.234;2023-08-31T04:47:10;12.68;;;3.58;;
40669;SDS011;26355;45.528;9.234;2023-08-31T04:49:36;14.93;;;4.70;;
40669;SDS011;26355;45.528;9.234;2023-08-31T04:52:01;18.33;;;3.83;;
40669;SDS011;26355;45.528;9.234;2023-08-31T04:54:27;12.95;;;2.88;;
40669;SDS011;26355;45.528;9.234;2023-08-31T04:56:53;14.15;;;3.47;;
40669;SDS011;26355;45.528;9.234;2023-08-31T04:59:18;15.27;;;3.45;;
40669;SDS011;26355;45.528;9.234;2023-08-31T05:01:44;14.05;;;3.42;;
40669;SDS011;26355;45.528;9.234;2023-08-31T05:04:09;24.48;;;4.68;;
40669;SDS011;26355;45.528;9.234;2023-08-31T05:06:35;12.98;;;3.53;;
40669;SDS011;26355;45.528;9.234;2023-08-31T05:09:00;13.02;;;3.15;;
40669;SDS011;26355;45.528;9.234;2023-08-31T05:11:26;11.05;;;2.95;;
40669;SDS011;26355;45.528;9.234;2023-08-31T05:13:51;12.55;;;3.03;;
40669;SDS011;26355;45.528;9.234;2023-08-31T05:16:17;12.60;;;3.28;;
40669;SDS011;26355;45.528;9.234;2023-08-31T05:18:42;10.73;;;2.88;;
40669;SDS011;26355;45.528;9.234;2023-08-31T05:21:08;14.20;;;3.30;;
40669;SDS011;26355;45.528;9.234;2023-08-31T05:23:34;13.85;;;3.47;;
40669;SDS011;26355;45.528;9.234;2023-08-31T05:25:59;15.70;;;3.75;;
40669;SDS011;26355;45.528;9.234;2023-08-31T05:28:26;13.52;;;3.22;;
40669;SDS011;26355;45.528;9.234;2023-08-31T05:30:52;18.85;;;5.03;;
40669;SDS011;26355;45.528;9.234;2023-08-31T05:33:20;16.05;;;4.00;;
40669;SDS011;26355;45.528;9.234;2023-08-31T05:35:47;16.95;;;3.83;;
40669;SDS011;26355;45.528;9.234;2023-08-31T05:38:13;15.02;;;3.67;;
40669;SDS011;26355;45.528;9.234;2023-08-31T05:40:39;16.05;;;3.55;;
40669;SDS011;26355;45.528;9.234;2023-08-31T05:43:04;10.73;;;2.53;;
40669;SDS011;26355;45.528;9.234;2023-08-31T05:45:33;13.48;;;3.42;;
40669;SDS011;26355;45.528;9.234;2023-08-31T05:47:59;10.20;;;2.90;;
40669;SDS011;26355;45.528;9.234;2023-08-31T05:50:25;11.25;;;2.28;;
40669;SDS011;26355;45.528;9.234;2023-08-31T05:52:51;9.70;;;2.13;;
40669;SDS011;26355;45.528;9.234;2023-08-31T05:55:17;11.73;;;2.50;;
40669;SDS011;26355;45.528;9.234;2023-08-31T05:57:42;16.27;;;5.07;;
40669;SDS011;26355;45.528;9.234;2023-08-31T06:00:08;10.63;;;3.17;;
40669;SDS011;26355;45.528;9.234;2023-08-31T06:02:34;13.95;;;3.35;;
40669;SDS011;26355;45.528;9.234;2023-08-31T06:05:00;13.25;;;3.13;;
40669;SDS011;26355;45.528;9.234;2023-08-31T06:07:27;16.23;;;3.33;;
40669;SDS011;26355;45.528;9.234;2023-08-31T06:09:54;11.50;;;2.97;;
40669;SDS011;26355;45.528;9.234;2023-08-31T06:12:20;10.60;;;3.08;;
40669;SDS011;26355;45.528;9.234;2023-08-31T06:14:45;11.98;;;3.17;;
40669;SDS011;26355;45.528;9.234;2023-08-31T06:17:11;14.80;;;3.15;;
40669;SDS011;26355;45.528;9.234;2023-08-31T06:19:38;13.15;;;3.42;;
40669;SDS011;26355;45.528;9.234;2023-08-31T06:22:04;12.02;;;3.35;;
40669;SDS011;26355;45.528;9.234;2023-08-31T06:24:29;15.38;;;3.90;;
40669;SDS011;26355;45.528;9.234;2023-08-31T06:26:55;15.93;;;4.40;;
40669;SDS011;26355;45.528;9.234;2023-08-31T06:29:21;15.52;;;4.20;;
40669;SDS011;26355;45.528;9.234;2023-08-31T06:31:47;17.02;;;4.13;;
40669;SDS011;26355;45.528;9.234;2023-08-31T06:34:13;19.05;;;5.65;;
40669;SDS011;26355;45.528;9.234;2023-08-31T06:36:38;14.43;;;4.68;;
40669;SDS011;26355;45.528;9.234;2023-08-31T06:39:05;17.35;;;5.45;;
40669;SDS011;26355;45.528;9.234;2023-08-31T06:41:31;13.15;;;3.95;;
40669;SDS011;26355;45.528;9.234;2023-08-31T06:43:57;16.45;;;4.88;;
40669;SDS011;26355;45.528;9.234;2023-08-31T06:46:22;13.88;;;4.40;;
40669;SDS011;26355;45.528;9.234;2023-08-31T06:48:48;15.10;;;4.53;;
40669;SDS011;26355;45.528;9.234;2023-08-31T06:51:14;13.82;;;4.95;;
40669;SDS011;26355;45.528;9.234;2023-08-31T06:53:41;16.30;;;5.88;;
40669;SDS011;26355;45.528;9.234;2023-08-31T06:56:08;17.55;;;5.80;;
40669;SDS011;26355;45.528;9.234;2023-08-31T06:58:34;16.77;;;4.63;;
40669;SDS011;26355;45.528;9.234;2023-08-31T07:00:59;14.82;;;4.53;;
40669;SDS011;26355;45.528;9.234;2023-08-31T07:03:25;15.07;;;4.50;;
40669;SDS011;26355;45.528;9.234;2023-08-31T07:05:50;15.07;;;5.13;;
40669;SDS011;26355;45.528;9.234;2023-08-31T07:08:17;14.88;;;4.97;;
40669;SDS011;26355;45.528;9.234;2023-08-31T07:10:42;14.40;;;4.38;;
40669;SDS011;26355;45.528;9.234;2023-08-31T07:13:08;12.20;;;4.55;;
40669;SDS011;26355;45.528;9.234;2023-08-31T07:15:33;13.98;;;4.60;;
40669;SDS011;26355;45.528;9.234;2023-08-31T07:17:59;15.10;;;4.97;;
40669;SDS011;26355;45.528;9.234;2023-08-31T07:20:25;14.40;;;5.25;;
40669;SDS011;26355;45.528;9.234;2023-08-31T07:22:51;14.75;;;4.57;;
40669;SDS011;26355;45.528;9.234;2023-08-31T07:25:16;17.73;;;5.35;;
40669;SDS011;26355;45.528;9.234;2023-08-31T07:27:42;15.98;;;4.72;;
40669;SDS011;26355;45.528;9.234;2023-08-31T07:30:08;16.67;;;5.50;;
40669;SDS011;26355;45.528;9.234;2023-08-31T07:32:35;15.95;;;5.20;;
40669;SDS011;26355;45.528;9.234;2023-08-31T07:35:00;16.75;;;4.90;;
40669;SDS011;26355;45.528;9.234;2023-08-31T07:37:26;14.30;;;4.75;;
40669;SDS011;26355;45.528;9.234;2023-08-31T07:39:51;16.55;;;5.80;;
40669;SDS011;26355;45.528;9.234;2023-08-31T07:42:17;15.85;;;4.75;;
40669;SDS011;26355;45.528;9.234;2023-08-31T07:44:42;14.85;;;4.75;;
40669;SDS011;26355;45.528;9.234;2023-08-31T07:47:13;15.97;;;4.80;;
40669;SDS011;26355;45.528;9.234;2023-08-31T07:49:38;15.95;;;4.63;;
40669;SDS011;26355;45.528;9.234;2023-08-31T07:52:04;15.23;;;4.43;;
40669;SDS011;26355;45.528;9.234;2023-08-31T07:54:30;14.43;;;4.15;;
40669;SDS011;26355;45.528;9.234;2023-08-31T07:56:55;15.23;;;4.45;;
40669;SDS011;26355;45.528;9.234;2023-08-31T07:59:21;14.77;;;4.63;;
40669;SDS011;26355;45.528;9.234;2023-08-31T08:01:47;15.10;;;3.92;;
40669;SDS011;26355;45.528;9.234;2023-08-31T08:04:13;14.23;;;3.92;;
40669;SDS011;26355;45.528;9.234;2023-08-31T08:06:38;11.63;;;3.70;;
40669;SDS011;26355;45.528;9.234;2023-08-31T08:09:04;15.85;;;4.13;;
40669;SDS011;26355;45.528;9.234;2023-08-31T08:11:30;12.88;;;3.25;;
40669;SDS011;26355;45.528;9.234;2023-08-31T08:13:56;12.27;;;3.72;;
40669;SDS011;26355;45.528;9.234;2023-08-31T08:16:21;14.02;;;3.97;;
40669;SDS011;26355;45.528;9.234;2023-08-31T08:18:47;13.05;;;3.08;;
40669;SDS011;26355;45.528;9.234;2023-08-31T08:21:13;11.38;;;2.30;;
40669;SDS011;26355;45.528;9.234;2023-08-31T08:23:38;9.50;;;2.20;;
40669;SDS011;26355;45.528;9.234;2023-08-31T08:26:04;8.93;;;2.13;;
40669;SDS011;26355;45.528;9.234;2023-08-31T08:28:29;8.90;;;2.17;;
40669;SDS011;26355;45.528;9.234;2023-08-31T08:30:55;12.25;;;2.88;;
40669;SDS011;26355;45.528;9.234;2023-08-31T08:33:21;12.32;;;2.88;;
40669;SDS011;26355;45.528;9.234;2023-08-31T08:35:46;13.20;;;2.55;;
40669;SDS011;26355;45.528;9.234;2023-08-31T08:38:12;10.50;;;2.30;;
40669;SDS011;26355;45.528;9.234;2023-08-31T08:40:37;10.32;;;2.17;;
40669;SDS011;26355;45.528;9.234;2023-08-31T08:43:07;8.45;;;2.13;;
40669;SDS011;26355;45.528;9.234;2023-08-31T08:45:37;14.98;;;3.38;;
40669;SDS011;26355;45.528;9.234;2023-08-31T08:48:07;13.27;;;2.45;;
40669;SDS011;26355;45.528;9.234;2023-08-31T08:50:34;10.95;;;2.40;;
40669;SDS011;26355;45.528;9.234;2023-08-31T08:53:04;12.90;;;2.40;;
40669;SDS011;26355;45.528;9.234;2023-08-31T08:55:30;10.88;;;2.22;;
40669;SDS011;26355;45.528;9.234;2023-08-31T08:57:58;11.45;;;2.33;;
40669;SDS011;26355;45.528;9.234;2023-08-31T09:00:25;8.75;;;2.05;;
40669;SDS011;26355;45.528;9.234;2023-08-31T09:02:52;8.20;;;2.15;;
40669;SDS011;26355;45.528;9.234;2023-08-31T09:05:17;12.07;;;2.30;;
40669;SDS011;26355;45.528;9.234;2023-08-31T09:08:02;8.50;;;2.40;;
40669;SDS011;26355;45.528;9.234;2023-08-31T09:10:43;12.13;;;2.50;;
40669;SDS011;26355;45.528;9.234;2023-08-31T09:13:12;10.52;;;2.35;;
40669;SDS011;26355;45.528;9.234;2023-08-31T09:15:43;10.27;;;2.20;;
40669;SDS011;26355;45.528;9.234;2023-08-31T09:20:49;5.03;;;1.83;;
40669;SDS011;26355;45.528;9.234;2023-08-31T09:23:15;11.15;;;2.45;;
40669;SDS011;26355;45.528;9.234;2023-08-31T09:25:44;14.07;;;2.70;;
40669;SDS011;26355;45.528;9.234;2023-08-31T09:28:13;10.73;;;2.17;;
40669;SDS011;26355;45.528;9.234;2023-08-31T09:30:39;9.30;;;2.08;;
40669;SDS011;26355;45.528;9.234;2023-08-31T09:33:13;11.73;;;2.05;;
40669;SDS011;26355;45.528;9.234;2023-08-31T09:35:45;8.68;;;2.05;;
40669;SDS011;26355;45.528;9.234;2023-08-31T09:38:18;9.18;;;1.92;;
40669;SDS011;26355;45.528;9.234;2023-08-31T09:40:44;11.32;;;2.25;;
40669;SDS011;26355;45.528;9.234;2023-08-31T09:43:10;14.05;;;2.40;;
40669;SDS011;26355;45.528;9.234;2023-08-31T09:45:35;11.63;;;2.45;;
40669;SDS011;26355;45.528;9.234;2023-08-31T09:48:03;9.07;;;2.13;;
40669;SDS011;26355;45.528;9.234;2023-08-31T09:50:30;11.18;;;2.47;;
40669;SDS011;26355;45.528;9.234;2023-08-31T09:53:03;11.05;;;2.20;;
40669;SDS011;26355;45.528;9.234;2023-08-31T09:55:30;10.80;;;2.20;;
40669;SDS011;26355;45.528;9.234;2023-08-31T09:57:57;10.68;;;2.22;;
40669;SDS011;26355;45.528;9.234;2023-08-31T10:00:28;10.52;;;2.33;;
40669;SDS011;26355;45.528;9.234;2023-08-31T10:02:56;10.57;;;2.10;;
40669;SDS011;26355;45.528;9.234;2023-08-31T10:05:25;10.95;;;2.47;;
40669;SDS011;26355;45.528;9.234;2023-08-31T10:07:51;11.68;;;2.00;;
40669;SDS011;26355;45.528;9.234;2023-08-31T10:10:17;11.00;;;2.72;;
40669;SDS011;26355;45.528;9.234;2023-08-31T10:12:44;8.95;;;2.42;;
40669;SDS011;26355;45.528;9.234;2023-08-31T10:15:11;10.50;;;2.25;;
40669;SDS011;26355;45.528;9.234;2023-08-31T10:17:38;9.38;;;2.42;;
40669;SDS011;26355;45.528;9.234;2023-08-31T10:20:06;8.95;;;2.05;;
40669;SDS011;26355;45.528;9.234;2023-08-31T10:22:33;10.65;;;2.30;;
40669;SDS011;26355;45.528;9.234;2023-08-31T10:25:06;11.55;;;3.17;;
40669;SDS011;26355;45.528;9.234;2023-08-31T10:35:52;7.80;;;2.08;;
40669;SDS011;26355;45.528;9.234;2023-08-31T10:38:25;9.55;;;1.88;;
40669;SDS011;26355;45.528;9.234;2023-08-31T10:43:55;9.60;;;1.90;;
40669;SDS011;26355;45.528;9.234;2023-08-31T10:46:27;8.93;;;2.05;;
40669;SDS011;26355;45.528;9.234;2023-08-31T10:51:23;10.07;;;2.30;;
40669;SDS011;26355;45.528;9.234;2023-08-31T10:59:25;10.10;;;2.35;;
40669;SDS011;26355;45.528;9.234;2023-08-31T11:02:06;10.98;;;2.25;;
40669;SDS011;26355;45.528;9.234;2023-08-31T11:04:38;8.50;;;1.80;;
40669;SDS011;26355;45.528;9.234;2023-08-31T11:07:18;6.22;;;1.75;;
40669;SDS011;26355;45.528;9.234;2023-08-31T11:09:45;10.40;;;2.60;;
40669;SDS011;26355;45.528;9.234;2023-08-31T11:12:11;11.20;;;2.10;;
40669;SDS011;26355;45.528;9.234;2023-08-31T11:14:38;9.98;;;2.58;;
40669;SDS011;26355;45.528;9.234;2023-08-31T11:17:04;10.40;;;2.63;;
40669;SDS011;26355;45.528;9.234;2023-08-31T11:19:31;7.40;;;2.20;;
40669;SDS011;26355;45.528;9.234;2023-08-31T11:26:50;6.90;;;1.80;;
40669;SDS011;26355;45.528;9.234;2023-08-31T11:29:16;9.20;;;2.00;;
40669;SDS011;26355;45.528;9.234;2023-08-31T11:31:42;11.20;;;2.10;;
40669;SDS011;26355;45.528;9.234;2023-08-31T11:34:11;12.15;;;2.35;;
40669;SDS011;26355;45.528;9.234;2023-08-31T11:36:38;8.60;;;1.95;;
40669;SDS011;26355;45.528;9.234;2023-08-31T11:39:05;10.40;;;2.00;;
40669;SDS011;26355;45.528;9.234;2023-08-31T11:41:35;12.35;;;1.98;;
40669;SDS011;26355;45.528;9.234;2023-08-31T11:44:02;10.93;;;1.90;;
40669;SDS011;26355;45.528;9.234;2023-08-31T11:46:29;9.85;;;2.17;;
40669;SDS011;26355;45.528;9.234;2023-08-31T11:53:49;8.27;;;2.23;;
40669;SDS011;26355;45.528;9.234;2023-08-31T11:56:15;10.35;;;2.33;;
40669;SDS011;26355;45.528;9.234;2023-08-31T11:58:41;11.60;;;2.38;;
40669;SDS011;26355;45.528;9.234;2023-08-31T12:01:11;9.20;;;2.00;;
40669;SDS011;26355;45.528;9.234;2023-08-31T12:03:44;8.30;;;2.33;;
40669;SDS011;26355;45.528;9.234;2023-08-31T12:06:10;6.53;;;2.08;;
40669;SDS011;26355;45.528;9.234;2023-08-31T12:08:36;8.48;;;2.40;;
40669;SDS011;26355;45.528;9.234;2023-08-31T12:11:02;11.07;;;2.30;;
40669;SDS011;26355;45.528;9.234;2023-08-31T12:13:27;8.23;;;1.98;;
40669;SDS011;26355;45.528;9.234;2023-08-31T12:15:54;10.52;;;2.03;;
40669;SDS011;26355;45.528;9.234;2023-08-31T12:18:20;9.85;;;1.80;;
40669;SDS011;26355;45.528;9.234;2023-08-31T12:20:46;10.77;;;2.17;;
40669;SDS011;26355;45.528;9.234;2023-08-31T12:23:13;8.15;;;1.90;;
40669;SDS011;26355;45.528;9.234;2023-08-31T12:25:47;8.35;;;2.20;;
40669;SDS011;26355;45.528;9.234;2023-08-31T12:28:13;8.10;;;2.05;;
40669;SDS011;26355;45.528;9.234;2023-08-31T12:30:41;6.00;;;1.90;;
40669;SDS011;26355;45.528;9.234;2023-08-31T12:33:09;10.70;;;2.10;;
40669;SDS011;26355;45.528;9.234;2023-08-31T12:35:35;8.40;;;2.05;;
40669;SDS011;26355;45.528;9.234;2023-08-31T12:38:00;7.97;;;1.90;;
40669;SDS011;26355;45.528;9.234;2023-08-31T12:40:27;8.37;;;1.80;;
40669;SDS011;26355;45.528;9.234;2023-08-31T12:42:52;7.45;;;2.00;;
40669;SDS011;26355;45.528;9.234;2023-08-31T12:45:18;11.13;;;1.98;;
40669;SDS011;26355;45.528;9.234;2023-08-31T12:47:43;9.30;;;2.50;;
40669;SDS011;26355;45.528;9.234;2023-08-31T12:50:09;7.38;;;2.00;;
40669;SDS011;26355;45.528;9.234;2023-08-31T12:52:35;10.38;;;2.15;;
40669;SDS011;26355;45.528;9.234;2023-08-31T12:55:00;7.85;;;1.65;;
40669;SDS011;26355;45.528;9.234;2023-08-31T12:57:26;8.43;;;2.30;;
40669;SDS011;26355;45.528;9.234;2023-08-31T12:59:52;9.23;;;2.22;;
40669;SDS011;26355;45.528;9.234;2023-08-31T13:02:17;7.78;;;1.95;;
40669;SDS011;26355;45.528;9.234;2023-08-31T13:04:44;8.35;;;2.03;;
40669;SDS011;26355;45.528;9.234;2023-08-31T13:07:10;6.38;;;1.85;;
40669;SDS011;26355;45.528;9.234;2023-08-31T13:09:36;8.80;;;1.80;;
40669;SDS011;26355;45.528;9.234;2023-08-31T13:12:01;6.30;;;1.70;;
40669;SDS011;26355;45.528;9.234;2023-08-31T13:14:27;7.85;;;2.03;;
40669;SDS011;26355;45.528;9.234;2023-08-31T13:16:53;5.20;;;1.50;;
40669;SDS011;26355;45.528;9.234;2023-08-31T13:19:18;8.50;;;1.77;;
40669;SDS011;26355;45.528;9.234;2023-08-31T13:21:44;9.65;;;1.77;;
40669;SDS011;26355;45.528;9.234;2023-08-31T13:24:10;9.25;;;1.80;;
40669;SDS011;26355;45.528;9.234;2023-08-31T13:26:36;8.82;;;1.83;;
40669;SDS011;26355;45.528;9.234;2023-08-31T13:29:01;5.95;;;1.63;;
40669;SDS011;26355;45.528;9.234;2023-08-31T13:31:28;8.65;;;2.08;;
40669;SDS011;26355;45.528;9.234;2023-08-31T13:33:54;7.20;;;1.95;;
40669;SDS011;26355;45.528;9.234;2023-08-31T13:36:19;4.43;;;1.45;;
40669;SDS011;26355;45.528;9.234;2023-08-31T13:38:45;10.70;;;2.00;;
40669;SDS011;26355;45.528;9.234;2023-08-31T13:41:10;7.22;;;2.00;;
40669;SDS011;26355;45.528;9.234;2023-08-31T13:43:36;10.75;;;2.08;;
40669;SDS011;26355;45.528;9.234;2023-08-31T13:46:01;5.15;;;1.63;;
40669;SDS011;26355;45.528;9.234;2023-08-31T13:48:29;6.20;;;2.00;;
40669;SDS011;26355;45.528;9.234;2023-08-31T13:50:55;7.20;;;1.52;;
40669;SDS011;26355;45.528;9.234;2023-08-31T13:53:20;8.18;;;1.70;;
40669;SDS011;26355;45.528;9.234;2023-08-31T13:55:46;7.65;;;1.65;;
40669;SDS011;26355;45.528;9.234;2023-08-31T13:58:11;7.00;;;1.85;;
40669;SDS011;26355;45.528;9.234;2023-08-31T14:00:37;7.88;;;1.88;;
40669;SDS011;26355;45.528;9.234;2023-08-31T14:03:03;7.18;;;2.00;;
40669;SDS011;26355;45.528;9.234;2023-08-31T14:05:30;6.78;;;1.65;;
40669;SDS011;26355;45.528;9.234;2023-08-31T14:07:56;11.85;;;2.58;;
40669;SDS011;26355;45.528;9.234;2023-08-31T14:10:23;8.90;;;1.80;;
40669;SDS011;26355;45.528;9.234;2023-08-31T14:12:49;8.55;;;2.00;;
40669;SDS011;26355;45.528;9.234;2023-08-31T14:15:15;6.80;;;1.73;;
40669;SDS011;26355;45.528;9.234;2023-08-31T14:17:41;8.68;;;1.88;;
40669;SDS011;26355;45.528;9.234;2023-08-31T14:20:07;10.18;;;1.77;;
40669;SDS011;26355;45.528;9.234;2023-08-31T14:22:36;9.50;;;2.00;;
40669;SDS011;26355;45.528;9.234;2023-08-31T14:25:02;8.48;;;1.83;;
40669;SDS011;26355;45.528;9.234;2023-08-31T14:27:28;8.13;;;1.70;;
40669;SDS011;26355;45.528;9.234;2023-08-31T14:29:55;7.05;;;1.95;;
40669;SDS011;26355;45.528;9.234;2023-08-31T14:32:22;6.35;;;1.52;;
40669;SDS011;26355;45.528;9.234;2023-08-31T14:34:47;6.13;;;1.90;;
40669;SDS011;26355;45.528;9.234;2023-08-31T14:37:13;9.52;;;2.00;;
40669;SDS011;26355;45.528;9.234;2023-08-31T14:39:39;7.78;;;1.85;;
40669;SDS011;26355;45.528;9.234;2023-08-31T14:42:04;11.13;;;1.73;;
40669;SDS011;26355;45.528;9.234;2023-08-31T14:44:30;6.30;;;1.40;;
40669;SDS011;26355;45.528;9.234;2023-08-31T14:46:55;6.82;;;1.50;;
40669;SDS011;26355;45.528;9.234;2023-08-31T14:49:24;8.93;;;1.90;;
40669;SDS011;26355;45.528;9.234;2023-08-31T14:51:52;7.57;;;1.60;;
40669;SDS011;26355;45.528;9.234;2023-08-31T14:54:18;5.97;;;1.50;;
40669;SDS011;26355;45.528;9.234;2023-08-31T14:56:43;8.82;;;1.65;;
40669;SDS011;26355;45.528;9.234;2023-08-31T14:59:09;8.93;;;1.90;;
40669;SDS011;26355;45.528;9.234;2023-08-31T15:01:35;8.02;;;1.67;;
40669;SDS011;26355;45.528;9.234;2023-08-31T15:04:00;7.22;;;1.60;;
40669;SDS011;26355;45.528;9.234;2023-08-31T15:06:26;6.85;;;1.40;;
40669;SDS011;26355;45.528;9.234;2023-08-31T15:08:51;7.55;;;2.00;;
40669;SDS011;26355;45.528;9.234;2023-08-31T15:11:17;6.80;;;1.73;;
40669;SDS011;26355;45.528;9.234;2023-08-31T15:13:42;5.10;;;1.70;;
40669;SDS011;26355;45.528;9.234;2023-08-31T15:16:08;9.95;;;2.08;;
40669;SDS011;26355;45.528;9.234;2023-08-31T15:18:34;4.85;;;1.70;;
40669;SDS011;26355;45.528;9.234;2023-08-31T15:20:59;6.15;;;1.70;;
40669;SDS011;26355;45.528;9.234;2023-08-31T15:23:26;6.55;;;1.77;;
40669;SDS011;26355;45.528;9.234;2023-08-31T15:25:51;6.35;;;1.60;;